createdAt,value
2018-12-13T00:00:27.444Z,1020.46
2018-12-13T00:02:27.433Z,1020.45
2018-12-13T00:03:27.497Z,1020.42
2018-12-13T00:04:27.460Z,1020.42
2018-12-13T00:05:27.473Z,1020.44
2018-12-13T00:06:33.175Z,1020.43
2018-12-13T00:07:27.500Z,1020.43
2018-12-13T00:08:27.513Z,1020.38
2018-12-13T00:09:27.526Z,1020.38
2018-12-13T00:10:27.542Z,1020.38
2018-12-13T00:11:27.556Z,1020.35
2018-12-13T00:12:27.566Z,1020.34
2018-12-13T00:13:27.581Z,1020.35
2018-12-13T00:14:27.593Z,1020.37
2018-12-13T00:15:27.606Z,1020.36
2018-12-13T00:16:27.621Z,1020.34
2018-12-13T00:18:27.647Z,1020.35
2018-12-13T00:19:27.659Z,1020.34
2018-12-13T00:20:27.675Z,1020.34
2018-12-13T00:21:27.688Z,1020.35
2018-12-13T00:22:27.701Z,1020.32
2018-12-13T00:23:27.714Z,1020.34
2018-12-13T00:24:27.728Z,1020.32
2018-12-13T00:25:27.800Z,1020.33
2018-12-13T00:26:27.754Z,1020.36
2018-12-13T00:27:27.768Z,1020.35
2018-12-13T00:28:27.781Z,1020.38
2018-12-13T00:29:27.793Z,1020.38
2018-12-13T00:30:27.807Z,1020.35
2018-12-13T00:31:27.821Z,1020.35
2018-12-13T00:32:27.833Z,1020.35
2018-12-13T00:34:27.861Z,1020.35
2018-12-13T00:35:27.883Z,1020.33
2018-12-13T00:36:27.888Z,1020.32
2018-12-13T00:37:27.901Z,1020.3
2018-12-13T00:38:27.914Z,1020.39
2018-12-13T00:39:27.928Z,1020.39
2018-12-13T00:40:27.940Z,1020.34
2018-12-13T00:41:27.952Z,1020.35
2018-12-13T00:42:28.070Z,1020.4
2018-12-13T00:43:27.980Z,1020.41
2018-12-13T00:44:27.992Z,1020.39
2018-12-13T00:45:28.005Z,1020.37
2018-12-13T00:46:28.018Z,1020.37
2018-12-13T00:47:28.033Z,1020.32
2018-12-13T00:48:28.046Z,1020.33
2018-12-13T00:50:28.072Z,1020.34
2018-12-13T00:51:28.085Z,1020.34
2018-12-13T00:52:28.098Z,1020.33
2018-12-13T00:53:28.112Z,1020.37
2018-12-13T00:54:28.125Z,1020.36
2018-12-13T00:55:28.190Z,1020.36
2018-12-13T00:56:28.152Z,1020.38
2018-12-13T00:57:28.165Z,1020.38
2018-12-13T00:58:28.179Z,1020.38
2018-12-13T00:59:28.191Z,1020.42
2018-12-13T01:00:28.258Z,1020.36
2018-12-13T01:01:28.218Z,1020.36
2018-12-13T01:02:28.232Z,1020.41
2018-12-13T01:03:28.246Z,1020.39
2018-12-13T01:05:28.273Z,1020.39
2018-12-13T01:06:28.286Z,1020.41
2018-12-13T01:07:28.299Z,1020.38
2018-12-13T01:08:28.313Z,1020.36
2018-12-13T01:09:28.327Z,1020.38
2018-12-13T01:10:28.340Z,1020.37
2018-12-13T01:11:28.354Z,1020.36
2018-12-13T01:12:28.368Z,1020.39
2018-12-13T01:13:28.380Z,1020.37
2018-12-13T01:14:28.394Z,1020.42
2018-12-13T01:15:28.407Z,1020.4
2018-12-13T01:16:28.420Z,1020.42
2018-12-13T01:17:28.434Z,1020.39
2018-12-13T01:18:28.447Z,1020.39
2018-12-13T01:19:28.461Z,1020.38
2018-12-13T01:20:28.474Z,1020.35
2018-12-13T01:21:28.487Z,1020.38
2018-12-13T01:22:28.500Z,1020.37
2018-12-13T01:23:28.515Z,1020.33
2018-12-13T01:24:28.527Z,1020.36
2018-12-13T01:25:28.541Z,1020.32
2018-12-13T01:26:28.554Z,1020.28
2018-12-13T01:27:28.568Z,1020.27
2018-12-13T01:28:28.580Z,1020.27
2018-12-13T01:29:28.595Z,1020.27
2018-12-13T01:30:28.608Z,1020.27
2018-12-13T01:31:28.622Z,1020.22
2018-12-13T01:32:28.634Z,1020.24
2018-12-13T01:33:28.648Z,1020.23
2018-12-13T01:34:28.663Z,1020.22
2018-12-13T01:35:28.674Z,1020.23
2018-12-13T01:37:28.703Z,1020.18
2018-12-13T01:38:28.717Z,1020.17
2018-12-13T01:39:28.730Z,1020.15
2018-12-13T01:40:28.742Z,1020.12
2018-12-13T01:41:28.755Z,1020.09
2018-12-13T01:42:28.769Z,1020.13
2018-12-13T01:43:28.781Z,1020.13
2018-12-13T01:44:28.797Z,1020.1
2018-12-13T01:45:28.819Z,1020.15
2018-12-13T01:46:28.822Z,1020.15
2018-12-13T01:47:28.836Z,1020.16
2018-12-13T01:48:28.850Z,1020.14
2018-12-13T01:49:28.863Z,1020.15
2018-12-13T01:50:28.876Z,1020.15
2018-12-13T01:51:28.890Z,1020.14
2018-12-13T01:53:28.917Z,1020.16
2018-12-13T01:54:28.930Z,1020.11
2018-12-13T01:55:28.944Z,1020.08
2018-12-13T01:56:28.957Z,1020.13
2018-12-13T01:57:28.970Z,1020.14
2018-12-13T01:58:28.984Z,1020.13
2018-12-13T01:59:28.999Z,1020.13
2018-12-13T02:00:29.011Z,1020.12
2018-12-13T02:01:29.026Z,1020.12
2018-12-13T02:02:29.038Z,1020.1
2018-12-13T02:03:29.054Z,1020.12
2018-12-13T02:04:29.066Z,1020.11
2018-12-13T02:05:29.080Z,1020.13
2018-12-13T02:06:29.093Z,1020.13
2018-12-13T02:07:29.108Z,1020.1
2018-12-13T02:09:29.133Z,1020.12
2018-12-13T02:10:29.148Z,1020.11
2018-12-13T02:11:29.167Z,1020.13
2018-12-13T02:12:29.175Z,1020.09
2018-12-13T02:13:29.189Z,1020.06
2018-12-13T02:14:29.203Z,1020.07
2018-12-13T02:15:29.216Z,1020.08
2018-12-13T02:16:29.228Z,1020.09
2018-12-13T02:17:29.242Z,1020.07
2018-12-13T02:18:29.257Z,1020.04
2018-12-13T02:19:29.268Z,1020.1
2018-12-13T02:20:29.281Z,1020.1
2018-12-13T02:21:29.297Z,1020.05
2018-12-13T02:22:29.311Z,1020.03
2018-12-13T02:23:29.323Z,1019.98
2018-12-13T02:25:29.350Z,1020.02
2018-12-13T02:26:29.365Z,1020.05
2018-12-13T02:27:29.380Z,1020.02
2018-12-13T02:28:29.391Z,1020.01
2018-12-13T02:29:29.454Z,1019.99
2018-12-13T02:30:29.417Z,1020.02
2018-12-13T02:31:29.436Z,1020.02
2018-12-13T02:32:29.445Z,1019.99
2018-12-13T02:33:29.459Z,1019.99
2018-12-13T02:34:29.473Z,1019.96
2018-12-13T02:35:29.485Z,1019.94
2018-12-13T02:36:29.499Z,1020
2018-12-13T02:37:29.513Z,1020
2018-12-13T02:38:29.527Z,1020.01
2018-12-13T02:40:29.554Z,1020.02
2018-12-13T02:41:29.570Z,1020
2018-12-13T02:42:29.582Z,1019.98
2018-12-13T02:43:29.598Z,1019.96
2018-12-13T02:44:29.610Z,1020.05
2018-12-13T02:45:29.621Z,1020.01
2018-12-13T02:46:29.635Z,1020.04
2018-12-13T02:47:29.749Z,1020.04
2018-12-13T02:48:29.661Z,1020.03
2018-12-13T02:49:29.677Z,1020.03
2018-12-13T02:50:29.689Z,1020.02
2018-12-13T02:51:29.703Z,1020
2018-12-13T02:52:29.716Z,1020.02
2018-12-13T02:53:29.729Z,1019.98
2018-12-13T02:54:29.745Z,1019.99
2018-12-13T02:55:29.757Z,1020
2018-12-13T02:56:29.769Z,1019.98
2018-12-13T02:57:29.785Z,1019.97
2018-12-13T02:58:29.797Z,1020
2018-12-13T02:59:29.860Z,1019.96
2018-12-13T03:00:29.826Z,1019.94
2018-12-13T03:01:29.839Z,1019.94
2018-12-13T03:02:29.853Z,1019.92
2018-12-13T03:03:29.870Z,1019.94
2018-12-13T03:04:29.881Z,1019.93
2018-12-13T03:05:29.892Z,1019.92
2018-12-13T03:06:29.908Z,1019.9
2018-12-13T03:07:29.919Z,1019.96
2018-12-13T03:08:29.934Z,1019.9
2018-12-13T03:09:29.948Z,1019.94
2018-12-13T03:10:29.959Z,1019.92
2018-12-13T03:12:29.988Z,1019.9
2018-12-13T03:13:30.004Z,1019.92
2018-12-13T03:14:30.015Z,1019.95
2018-12-13T03:15:30.027Z,1019.93
2018-12-13T03:16:30.041Z,1019.88
2018-12-13T03:17:30.057Z,1019.95
2018-12-13T03:18:30.068Z,1019.95
2018-12-13T03:19:30.082Z,1019.95
2018-12-13T03:20:30.097Z,1019.95
2018-12-13T03:21:30.110Z,1019.91
2018-12-13T03:22:30.123Z,1019.93
2018-12-13T03:23:30.137Z,1019.88
2018-12-13T03:24:30.151Z,1019.87
2018-12-13T03:25:30.176Z,1019.89
2018-12-13T03:26:30.177Z,1019.82
2018-12-13T03:28:30.204Z,1019.86
2018-12-13T03:29:30.218Z,1019.81
2018-12-13T03:30:30.235Z,1019.82
2018-12-13T03:31:30.247Z,1019.83
2018-12-13T03:32:30.268Z,1019.85
2018-12-13T03:33:30.273Z,1019.9
2018-12-13T03:34:30.291Z,1019.88
2018-12-13T03:35:30.301Z,1019.87
2018-12-13T03:36:30.315Z,1019.85
2018-12-13T03:37:30.326Z,1019.86
2018-12-13T03:38:30.342Z,1019.81
2018-12-13T03:39:30.355Z,1019.83
2018-12-13T03:40:30.366Z,1019.79
2018-12-13T03:41:30.394Z,1019.77
2018-12-13T03:42:30.396Z,1019.77
2018-12-13T03:44:30.421Z,1019.74
2018-12-13T03:45:30.438Z,1019.73
2018-12-13T03:46:30.450Z,1019.72
2018-12-13T03:47:30.512Z,1019.74
2018-12-13T03:48:30.476Z,1019.71
2018-12-13T03:49:30.488Z,1019.69
2018-12-13T03:50:30.553Z,1019.73
2018-12-13T03:51:30.515Z,1019.71
2018-12-13T03:52:30.529Z,1019.72
2018-12-13T03:53:30.543Z,1019.66
2018-12-13T03:54:30.557Z,1019.67
2018-12-13T03:55:30.572Z,1019.65
2018-12-13T03:56:30.583Z,1019.71
2018-12-13T03:57:30.597Z,1019.65
2018-12-13T03:58:30.610Z,1019.7
2018-12-13T04:00:30.638Z,1019.68
2018-12-13T04:01:30.654Z,1019.67
2018-12-13T04:02:30.666Z,1019.68
2018-12-13T04:03:30.678Z,1019.68
2018-12-13T04:04:30.691Z,1019.68
2018-12-13T04:05:30.709Z,1019.71
2018-12-13T04:06:30.721Z,1019.63
2018-12-13T04:07:30.732Z,1019.66
2018-12-13T04:08:30.760Z,1019.62
2018-12-13T04:09:30.759Z,1019.61
2018-12-13T04:10:30.773Z,1019.6
2018-12-13T04:11:30.786Z,1019.58
2018-12-13T04:12:30.801Z,1019.55
2018-12-13T04:13:30.814Z,1019.53
2018-12-13T04:15:30.879Z,1019.49
2018-12-13T04:16:30.853Z,1019.48
2018-12-13T04:17:30.871Z,1019.49
2018-12-13T04:18:30.883Z,1019.51
2018-12-13T04:19:30.896Z,1019.49
2018-12-13T04:20:30.909Z,1019.46
2018-12-13T04:21:30.924Z,1019.53
2018-12-13T04:22:30.937Z,1019.59
2018-12-13T04:23:31.031Z,1019.62
2018-12-13T04:24:30.961Z,1019.55
2018-12-13T04:25:30.975Z,1019.51
2018-12-13T04:26:30.994Z,1019.53
2018-12-13T04:27:31.004Z,1019.58
2018-12-13T04:28:31.019Z,1019.58
2018-12-13T04:29:31.029Z,1019.6
2018-12-13T04:30:31.043Z,1019.55
2018-12-13T04:31:31.059Z,1019.58
2018-12-13T04:32:31.072Z,1019.58
2018-12-13T04:33:31.083Z,1019.58
2018-12-13T04:34:31.098Z,1019.54
2018-12-13T04:35:31.111Z,1019.51
2018-12-13T04:36:31.124Z,1019.48
2018-12-13T04:37:35.214Z,1019.41
2018-12-13T04:38:31.155Z,1019.49
2018-12-13T04:39:31.218Z,1019.52
2018-12-13T04:40:31.177Z,1019.55
2018-12-13T04:41:31.194Z,1019.6
2018-12-13T04:42:31.206Z,1019.55
2018-12-13T04:43:31.219Z,1019.56
2018-12-13T04:44:31.231Z,1019.55
2018-12-13T04:45:31.248Z,1019.52
2018-12-13T04:47:31.272Z,1019.52
2018-12-13T04:48:31.286Z,1019.54
2018-12-13T04:49:31.298Z,1019.54
2018-12-13T04:50:31.313Z,1019.56
2018-12-13T04:51:31.326Z,1019.59
2018-12-13T04:52:31.340Z,1019.51
2018-12-13T04:53:31.358Z,1019.45
2018-12-13T04:54:31.366Z,1019.46
2018-12-13T04:55:31.385Z,1019.49
2018-12-13T04:56:31.392Z,1019.47
2018-12-13T04:57:31.406Z,1019.45
2018-12-13T04:58:31.420Z,1019.43
2018-12-13T04:59:31.434Z,1019.46
2018-12-13T05:00:31.446Z,1019.49
2018-12-13T05:01:31.460Z,1019.49
2018-12-13T05:03:31.487Z,1019.46
2018-12-13T05:04:31.500Z,1019.43
2018-12-13T05:05:31.513Z,1019.45
2018-12-13T05:06:31.527Z,1019.41
2018-12-13T05:07:31.540Z,1019.41
2018-12-13T05:08:31.604Z,1019.42
2018-12-13T05:09:31.567Z,1019.43
2018-12-13T05:10:31.581Z,1019.41
2018-12-13T05:11:31.594Z,1019.41
2018-12-13T05:12:31.607Z,1019.37
2018-12-13T05:13:31.625Z,1019.37
2018-12-13T05:14:31.636Z,1019.42
2018-12-13T05:15:31.648Z,1019.41
2018-12-13T05:16:31.662Z,1019.36
2018-12-13T05:17:31.678Z,1019.34
2018-12-13T05:19:31.702Z,1019.37
2018-12-13T05:20:31.715Z,1019.36
2018-12-13T05:21:31.735Z,1019.35
2018-12-13T05:22:31.742Z,1019.32
2018-12-13T05:23:31.758Z,1019.31
2018-12-13T05:24:31.772Z,1019.32
2018-12-13T05:25:31.785Z,1019.29
2018-12-13T05:26:31.798Z,1019.33
2018-12-13T05:27:31.810Z,1019.33
2018-12-13T05:28:31.824Z,1019.31
2018-12-13T05:29:31.838Z,1019.31
2018-12-13T05:30:31.851Z,1019.36
2018-12-13T05:31:31.865Z,1019.35
2018-12-13T05:32:31.879Z,1019.36
2018-12-13T05:33:31.891Z,1019.36
2018-12-13T05:35:31.920Z,1019.33
2018-12-13T05:36:31.938Z,1019.36
2018-12-13T05:37:31.946Z,1019.32
2018-12-13T05:38:31.960Z,1019.32
2018-12-13T05:39:31.973Z,1019.31
2018-12-13T05:40:31.991Z,1019.3
2018-12-13T05:41:32.000Z,1019.35
2018-12-13T05:42:32.017Z,1019.31
2018-12-13T05:43:32.028Z,1019.29
2018-12-13T05:44:32.042Z,1019.29
2018-12-13T05:45:32.055Z,1019.31
2018-12-13T05:46:32.070Z,1019.28
2018-12-13T05:47:32.084Z,1019.27
2018-12-13T05:48:32.098Z,1019.27
2018-12-13T05:50:32.127Z,1019.25
2018-12-13T05:51:32.141Z,1019.21
2018-12-13T05:52:32.153Z,1019.23
2018-12-13T05:53:32.167Z,1019.19
2018-12-13T05:54:32.180Z,1019.2
2018-12-13T05:55:32.194Z,1019.2
2018-12-13T05:56:32.207Z,1019.23
2018-12-13T05:57:32.222Z,1019.19
2018-12-13T05:58:32.233Z,1019.19
2018-12-13T05:59:32.248Z,1019.18
2018-12-13T06:00:32.260Z,1019.19
2018-12-13T06:01:32.274Z,1019.15
2018-12-13T06:02:32.287Z,1019.21
2018-12-13T06:03:32.305Z,1019.18
2018-12-13T06:04:32.318Z,1019.16
2018-12-13T06:05:32.329Z,1019.17
2018-12-13T06:06:32.343Z,1019.17
2018-12-13T06:07:32.357Z,1019.19
2018-12-13T06:08:32.370Z,1019.19
2018-12-13T06:09:32.387Z,1019.23
2018-12-13T06:10:32.496Z,1019.25
2018-12-13T06:11:32.410Z,1019.25
2018-12-13T06:12:32.424Z,1019.29
2018-12-13T06:13:32.438Z,1019.29
2018-12-13T06:14:32.451Z,1019.27
2018-12-13T06:15:32.464Z,1019.31
2018-12-13T06:16:32.480Z,1019.32
2018-12-13T06:17:32.492Z,1019.34
2018-12-13T06:18:32.505Z,1019.3
2018-12-13T06:19:32.519Z,1019.28
2018-12-13T06:20:32.534Z,1019.28
2018-12-13T06:22:32.560Z,1019.25
2018-12-13T06:23:32.574Z,1019.3
2018-12-13T06:24:32.587Z,1019.25
2018-12-13T06:25:32.601Z,1019.25
2018-12-13T06:26:32.614Z,1019.26
2018-12-13T06:27:32.627Z,1019.3
2018-12-13T06:28:32.641Z,1019.31
2018-12-13T06:29:32.654Z,1019.26
2018-12-13T06:30:32.670Z,1019.3
2018-12-13T06:31:32.682Z,1019.28
2018-12-13T06:32:32.695Z,1019.23
2018-12-13T06:33:32.710Z,1019.25
2018-12-13T06:34:32.723Z,1019.23
2018-12-13T06:35:32.736Z,1019.26
2018-12-13T06:36:32.755Z,1019.24
2018-12-13T06:38:32.777Z,1019.3
2018-12-13T06:39:32.790Z,1019.29
2018-12-13T06:40:32.804Z,1019.32
2018-12-13T06:41:32.820Z,1019.28
2018-12-13T06:42:32.832Z,1019.25
2018-12-13T06:43:32.844Z,1019.26
2018-12-13T06:44:32.863Z,1019.26
2018-12-13T06:45:32.874Z,1019.31
2018-12-13T06:46:32.887Z,1019.29
2018-12-13T06:47:32.901Z,1019.28
2018-12-13T06:48:32.912Z,1019.27
2018-12-13T06:49:32.926Z,1019.27
2018-12-13T06:50:32.944Z,1019.26
2018-12-13T06:51:32.956Z,1019.26
2018-12-13T06:52:32.966Z,1019.22
2018-12-13T06:54:32.994Z,1019.23
2018-12-13T06:55:33.009Z,1019.22
2018-12-13T06:56:33.020Z,1019.24
2018-12-13T06:57:33.035Z,1019.27
2018-12-13T06:58:33.046Z,1019.26
2018-12-13T06:59:33.061Z,1019.3
2018-12-13T07:00:33.076Z,1019.28
2018-12-13T07:01:33.088Z,1019.23
2018-12-13T07:02:33.104Z,1019.25
2018-12-13T07:03:33.119Z,1019.23
2018-12-13T07:04:33.131Z,1019.2
2018-12-13T07:05:33.141Z,1019.18
2018-12-13T07:06:33.157Z,1019.16
2018-12-13T07:07:33.168Z,1019.21
2018-12-13T07:08:33.182Z,1019.22
2018-12-13T07:10:33.210Z,1019.12
2018-12-13T07:11:33.222Z,1019.08
2018-12-13T07:12:33.235Z,1019.06
2018-12-13T07:13:33.249Z,1019.12
2018-12-13T07:14:33.263Z,1019.16
2018-12-13T07:15:33.275Z,1019.2
2018-12-13T07:16:33.290Z,1019.2
2018-12-13T07:17:33.303Z,1019.25
2018-12-13T07:18:33.315Z,1019.24
2018-12-13T07:19:33.332Z,1019.25
2018-12-13T07:20:33.345Z,1019.25
2018-12-13T07:21:33.358Z,1019.31
2018-12-13T07:22:33.432Z,1019.43
2018-12-13T07:23:33.434Z,1019.47
2018-12-13T07:25:33.413Z,1019.47
2018-12-13T07:26:33.426Z,1019.5
2018-12-13T07:27:33.438Z,1019.47
2018-12-13T07:28:33.451Z,1019.54
2018-12-13T07:29:33.468Z,1019.49
2018-12-13T07:30:33.480Z,1019.54
2018-12-13T07:31:33.492Z,1019.52
2018-12-13T07:32:33.507Z,1019.53
2018-12-13T07:33:33.538Z,1019.49
2018-12-13T07:34:33.535Z,1019.49
2018-12-13T07:35:33.749Z,1019.51
2018-12-13T07:36:33.660Z,1019.52
2018-12-13T07:37:33.574Z,1019.56
2018-12-13T07:38:33.589Z,1019.54
2018-12-13T07:39:33.601Z,1019.56
2018-12-13T07:40:33.614Z,1019.53
2018-12-13T07:41:33.678Z,1019.55
2018-12-13T07:42:33.641Z,1019.59
2018-12-13T07:43:33.656Z,1019.56
2018-12-13T07:44:33.668Z,1019.57
2018-12-13T07:45:33.684Z,1019.55
2018-12-13T07:46:33.696Z,1019.54
2018-12-13T07:47:33.711Z,1019.52
2018-12-13T07:48:33.725Z,1019.54
2018-12-13T07:49:33.737Z,1019.52
2018-12-13T07:50:33.750Z,1019.52
2018-12-13T07:51:33.763Z,1019.55
2018-12-13T07:52:33.778Z,1019.51
2018-12-13T07:53:33.790Z,1019.51
2018-12-13T07:54:33.804Z,1019.53
2018-12-13T07:55:33.817Z,1019.52
2018-12-13T07:57:33.844Z,1019.59
2018-12-13T07:58:33.859Z,1019.56
2018-12-13T07:59:33.871Z,1019.52
2018-12-13T08:00:33.886Z,1019.55
2018-12-13T08:01:33.911Z,1019.57
2018-12-13T08:02:33.912Z,1019.59
2018-12-13T08:03:33.926Z,1019.52
2018-12-13T08:04:33.940Z,1019.6
2018-12-13T08:05:33.952Z,1019.53
2018-12-13T08:06:33.967Z,1019.57
2018-12-13T08:07:35.467Z,1019.54
2018-12-13T08:08:33.994Z,1019.55
2018-12-13T08:09:34.007Z,1019.51
2018-12-13T08:10:34.069Z,1019.52
2018-12-13T08:11:34.032Z,1019.52
2018-12-13T08:13:34.061Z,1019.45
2018-12-13T08:14:34.072Z,1019.42
2018-12-13T08:15:34.088Z,1019.43
2018-12-13T08:16:34.105Z,1019.47
2018-12-13T08:17:34.117Z,1019.39
2018-12-13T08:18:34.129Z,1019.38
2018-12-13T08:19:34.144Z,1019.41
2018-12-13T08:20:34.158Z,1019.36
2018-12-13T08:21:34.173Z,1019.42
2018-12-13T08:22:34.185Z,1019.4
2018-12-13T08:23:34.199Z,1019.41
2018-12-13T08:24:34.212Z,1019.38
2018-12-13T08:25:34.223Z,1019.38
2018-12-13T08:26:34.238Z,1019.36
2018-12-13T08:27:34.251Z,1019.36
2018-12-13T08:29:34.327Z,1019.35
2018-12-13T08:30:34.292Z,1019.37
2018-12-13T08:31:34.308Z,1019.35
2018-12-13T08:32:34.319Z,1019.34
2018-12-13T08:33:35.465Z,1019.38
2018-12-13T08:34:34.347Z,1019.34
2018-12-13T08:35:34.361Z,1019.37
2018-12-13T08:36:34.374Z,1019.35
2018-12-13T08:37:34.386Z,1019.35
2018-12-13T08:38:34.400Z,1019.4
2018-12-13T08:39:34.412Z,1019.36
2018-12-13T08:40:34.427Z,1019.32
2018-12-13T08:41:34.440Z,1019.35
2018-12-13T08:42:34.453Z,1019.35
2018-12-13T08:43:34.465Z,1019.39
2018-12-13T08:45:34.493Z,1019.35
2018-12-13T08:46:36.564Z,1019.36
2018-12-13T08:47:34.521Z,1019.37
2018-12-13T08:48:34.534Z,1019.35
2018-12-13T08:49:34.549Z,1019.35
2018-12-13T08:50:34.562Z,1019.36
2018-12-13T08:51:34.576Z,1019.39
2018-12-13T08:52:34.591Z,1019.41
2018-12-13T08:53:34.609Z,1019.4
2018-12-13T08:54:34.618Z,1019.45
2018-12-13T08:55:34.630Z,1019.47
2018-12-13T08:56:34.644Z,1019.4
2018-12-13T08:57:34.657Z,1019.41
2018-12-13T08:58:34.672Z,1019.37
2018-12-13T09:00:34.700Z,1019.37
2018-12-13T09:01:34.713Z,1019.38
2018-12-13T09:02:34.727Z,1019.38
2018-12-13T09:03:34.743Z,1019.35
2018-12-13T09:04:34.756Z,1019.31
2018-12-13T09:05:34.767Z,1019.35
2018-12-13T09:06:34.781Z,1019.34
2018-12-13T09:07:34.794Z,1019.36
2018-12-13T09:08:34.808Z,1019.36
2018-12-13T09:09:34.821Z,1019.39
2018-12-13T09:10:34.836Z,1019.42
2018-12-13T09:11:34.849Z,1019.43
2018-12-13T09:12:34.862Z,1019.45
2018-12-13T09:13:34.877Z,1019.47
2018-12-13T09:14:34.891Z,1019.51
2018-12-13T09:15:34.905Z,1019.47
2018-12-13T09:16:34.918Z,1019.48
2018-12-13T09:17:34.932Z,1019.44
2018-12-13T09:18:34.946Z,1019.46
2018-12-13T09:19:34.961Z,1019.45
2018-12-13T09:20:34.973Z,1019.47
2018-12-13T09:21:34.987Z,1019.46
2018-12-13T09:22:35.005Z,1019.44
2018-12-13T09:23:35.015Z,1019.42
2018-12-13T09:24:35.028Z,1019.45
2018-12-13T09:25:35.042Z,1019.49
2018-12-13T09:26:35.056Z,1019.44
2018-12-13T09:27:35.069Z,1019.51
2018-12-13T09:28:35.083Z,1019.53
2018-12-13T09:29:35.098Z,1019.46
2018-12-13T09:30:35.110Z,1019.49
2018-12-13T09:32:35.139Z,1019.45
2018-12-13T09:33:35.153Z,1019.48
2018-12-13T09:34:35.164Z,1019.48
2018-12-13T09:35:35.178Z,1019.42
2018-12-13T09:36:35.192Z,1019.4
2018-12-13T09:37:35.207Z,1019.47
2018-12-13T09:38:39.766Z,1019.42
2018-12-13T09:39:35.236Z,1019.44
2018-12-13T09:40:35.249Z,1019.42
2018-12-13T09:41:35.264Z,1019.38
2018-12-13T09:42:35.277Z,1019.41
2018-12-13T09:43:35.291Z,1019.4
2018-12-13T09:44:35.303Z,1019.37
2018-12-13T09:45:35.318Z,1019.38
2018-12-13T09:46:35.331Z,1019.34
2018-12-13T09:48:35.360Z,1019.37
2018-12-13T09:49:35.371Z,1019.3
2018-12-13T09:50:35.386Z,1019.32
2018-12-13T09:51:35.409Z,1019.32
2018-12-13T09:52:35.464Z,1019.32
2018-12-13T09:53:35.429Z,1019.33
2018-12-13T09:54:35.444Z,1019.29
2018-12-13T09:55:35.455Z,1019.32
2018-12-13T09:56:35.469Z,1019.31
2018-12-13T09:57:35.486Z,1019.33
2018-12-13T09:58:35.500Z,1019.31
2018-12-13T09:59:35.514Z,1019.28
2018-12-13T10:00:35.526Z,1019.31
2018-12-13T10:01:35.539Z,1019.29
2018-12-13T10:02:35.554Z,1019.25
2018-12-13T10:04:35.584Z,1019.24
2018-12-13T10:05:35.597Z,1019.2
2018-12-13T10:06:35.611Z,1019.23
2018-12-13T10:07:35.623Z,1019.2
2018-12-13T10:08:35.639Z,1019.21
2018-12-13T10:09:35.654Z,1019.18
2018-12-13T10:10:35.668Z,1019.17
2018-12-13T10:11:35.679Z,1019.18
2018-12-13T10:12:35.697Z,1019.21
2018-12-13T10:13:35.709Z,1019.17
2018-12-13T10:14:35.723Z,1019.18
2018-12-13T10:15:35.739Z,1019.21
2018-12-13T10:16:35.759Z,1019.18
2018-12-13T10:17:35.766Z,1019.17
2018-12-13T10:18:35.778Z,1019.18
2018-12-13T10:20:35.807Z,1019.21
2018-12-13T10:21:35.823Z,1019.18
2018-12-13T10:22:35.837Z,1019.2
2018-12-13T10:23:35.848Z,1019.08
2018-12-13T10:24:35.864Z,1019.15
2018-12-13T10:25:35.877Z,1019.03
2018-12-13T10:26:35.892Z,1019.04
2018-12-13T10:27:35.906Z,1019.04
2018-12-13T10:28:35.920Z,1019.05
2018-12-13T10:29:35.933Z,1019.06
2018-12-13T10:30:35.947Z,1019.04
2018-12-13T10:31:35.964Z,1019.01
2018-12-13T10:32:35.977Z,1019.01
2018-12-13T10:33:35.992Z,1019.04
2018-12-13T10:35:36.070Z,1018.98
2018-12-13T10:36:36.033Z,1018.98
2018-12-13T10:37:36.047Z,1018.95
2018-12-13T10:38:36.062Z,1018.96
2018-12-13T10:39:36.076Z,1018.98
2018-12-13T10:40:36.188Z,1018.95
2018-12-13T10:41:36.101Z,1018.97
2018-12-13T10:42:36.118Z,1018.95
2018-12-13T10:43:36.129Z,1018.93
2018-12-13T10:44:36.143Z,1018.95
2018-12-13T10:45:36.158Z,1018.92
2018-12-13T10:46:36.172Z,1018.93
2018-12-13T10:47:36.187Z,1018.89
2018-12-13T10:48:36.201Z,1018.91
2018-12-13T10:49:36.264Z,1018.87
2018-12-13T10:50:36.230Z,1018.9
2018-12-13T10:51:36.243Z,1018.89
2018-12-13T10:52:36.261Z,1018.85
2018-12-13T10:53:36.285Z,1018.89
2018-12-13T10:54:36.288Z,1018.88
2018-12-13T10:55:36.302Z,1018.89
2018-12-13T10:56:36.315Z,1018.88
2018-12-13T10:57:36.330Z,1018.87
2018-12-13T10:58:36.346Z,1018.88
2018-12-13T10:59:36.358Z,1018.87
2018-12-13T11:00:36.372Z,1018.86
2018-12-13T11:01:36.386Z,1018.89
2018-12-13T11:02:36.399Z,1018.85
2018-12-13T11:03:36.415Z,1018.85
2018-12-13T11:04:36.427Z,1018.84
2018-12-13T11:05:36.491Z,1018.88
2018-12-13T11:07:36.471Z,1018.85
2018-12-13T11:08:36.484Z,1018.84
2018-12-13T11:09:36.598Z,1018.83
2018-12-13T11:10:36.513Z,1018.85
2018-12-13T11:11:36.528Z,1018.84
2018-12-13T11:12:36.541Z,1018.87
2018-12-13T11:13:36.556Z,1018.85
2018-12-13T11:14:36.568Z,1018.84
2018-12-13T11:15:36.584Z,1018.83
2018-12-13T11:16:36.596Z,1018.81
2018-12-13T11:17:36.611Z,1018.86
2018-12-13T11:18:36.626Z,1018.86
2018-12-13T11:19:36.641Z,1018.86
2018-12-13T11:20:36.655Z,1018.84
2018-12-13T11:21:36.668Z,1018.85
2018-12-13T11:23:36.698Z,1018.84
2018-12-13T11:24:36.711Z,1018.84
2018-12-13T11:25:36.724Z,1018.82
2018-12-13T11:26:36.740Z,1018.82
2018-12-13T11:27:36.752Z,1018.78
2018-12-13T11:28:36.765Z,1018.76
2018-12-13T11:29:36.780Z,1018.77
2018-12-13T11:30:36.794Z,1018.78
2018-12-13T11:31:36.813Z,1018.8
2018-12-13T11:32:36.824Z,1018.82
2018-12-13T11:33:36.838Z,1018.81
2018-12-13T11:34:36.853Z,1018.84
2018-12-13T11:35:36.863Z,1018.89
2018-12-13T11:36:36.878Z,1018.84
2018-12-13T11:37:36.893Z,1018.83
2018-12-13T11:39:36.921Z,1018.88
2018-12-13T11:40:36.987Z,1018.84
2018-12-13T11:41:36.950Z,1018.86
2018-12-13T11:42:36.963Z,1018.84
2018-12-13T11:43:36.978Z,1018.9
2018-12-13T11:44:36.991Z,1018.89
2018-12-13T11:45:37.005Z,1018.86
2018-12-13T11:46:37.019Z,1018.87
2018-12-13T11:47:37.040Z,1018.86
2018-12-13T11:48:37.047Z,1018.86
2018-12-13T11:49:37.060Z,1018.87
2018-12-13T11:50:37.078Z,1018.83
2018-12-13T11:51:37.090Z,1018.83
2018-12-13T11:52:37.103Z,1018.82
2018-12-13T11:53:37.117Z,1018.84
2018-12-13T11:55:37.145Z,1018.8
2018-12-13T11:56:37.160Z,1018.82
2018-12-13T11:57:37.174Z,1018.83
2018-12-13T11:58:37.186Z,1018.88
2018-12-13T11:59:37.201Z,1018.85
2018-12-13T12:00:37.214Z,1018.84
2018-12-13T12:01:37.229Z,1018.84
2018-12-13T12:02:37.243Z,1018.81
2018-12-13T12:03:37.256Z,1018.83
2018-12-13T12:04:37.270Z,1018.83
2018-12-13T12:05:37.285Z,1018.82
2018-12-13T12:06:37.298Z,1018.8
2018-12-13T12:07:37.311Z,1018.85
2018-12-13T12:08:37.327Z,1018.84
2018-12-13T12:10:37.356Z,1018.82
2018-12-13T12:11:37.368Z,1018.84
2018-12-13T12:12:37.382Z,1018.8
2018-12-13T12:13:37.397Z,1018.78
2018-12-13T12:14:37.412Z,1018.78
2018-12-13T12:15:37.424Z,1018.79
2018-12-13T12:16:37.439Z,1018.76
2018-12-13T12:17:37.453Z,1018.78
2018-12-13T12:18:37.466Z,1018.76
2018-12-13T12:19:37.480Z,1018.76
2018-12-13T12:20:37.495Z,1018.8
2018-12-13T12:21:37.508Z,1018.78
2018-12-13T12:22:37.522Z,1018.73
2018-12-13T12:23:37.537Z,1018.76
2018-12-13T12:24:37.550Z,1018.7
2018-12-13T12:25:37.564Z,1018.68
2018-12-13T12:26:37.576Z,1018.65
2018-12-13T12:27:37.590Z,1018.64
2018-12-13T12:28:37.604Z,1018.66
2018-12-13T12:29:37.618Z,1018.64
2018-12-13T12:30:37.632Z,1018.66
2018-12-13T12:31:37.647Z,1018.64
2018-12-13T12:32:37.661Z,1018.7
2018-12-13T12:33:37.674Z,1018.66
2018-12-13T12:34:37.688Z,1018.69
2018-12-13T12:35:37.706Z,1018.68
2018-12-13T12:36:37.716Z,1018.65
2018-12-13T12:37:37.728Z,1018.65
2018-12-13T12:38:37.743Z,1018.7
2018-12-13T12:39:37.758Z,1018.64
2018-12-13T12:40:37.776Z,1018.67
2018-12-13T12:42:37.799Z,1018.68
2018-12-13T12:43:37.812Z,1018.63
2018-12-13T12:44:37.829Z,1018.62
2018-12-13T12:45:37.841Z,1018.59
2018-12-13T12:46:37.854Z,1018.6
2018-12-13T12:47:37.868Z,1018.64
2018-12-13T12:48:37.882Z,1018.59